createdAt,value
2022-10-02T00:01:40.796Z,92
2022-10-02T00:11:41.810Z,93
2022-10-02T00:21:42.500Z,94
2022-10-02T00:31:42.829Z,94
2022-10-02T00:41:43.382Z,95
2022-10-02T01:01:44.605Z,96
2022-10-02T01:11:44.807Z,96
2022-10-02T01:21:45.743Z,97
2022-10-02T01:31:46.410Z,97
2022-10-02T01:41:46.814Z,97
2022-10-02T01:51:47.252Z,97
2022-10-02T02:01:47.597Z,97
2022-10-02T02:11:47.565Z,97
2022-10-02T02:21:47.764Z,97
2022-10-02T02:31:48.428Z,97
2022-10-02T02:41:48.615Z,97
2022-10-02T02:51:48.808Z,97
2022-10-02T03:01:49.910Z,97
2022-10-02T03:11:50.289Z,97
2022-10-02T03:21:51.210Z,97
2022-10-02T03:31:52.084Z,98
2022-10-02T03:41:53.038Z,98
2022-10-02T03:51:53.852Z,98
2022-10-02T04:01:54.546Z,98
2022-10-02T04:21:55.907Z,98
2022-10-02T04:31:56.982Z,98
2022-10-02T04:41:57.511Z,98
2022-10-02T04:51:57.676Z,98
2022-10-02T05:01:57.803Z,98
2022-10-02T05:11:58.647Z,98
2022-10-02T05:21:59.408Z,98
2022-10-02T05:31:59.448Z,98
2022-10-02T05:41:59.881Z,97
2022-10-02T05:52:00.641Z,97
2022-10-02T06:02:01.516Z,97
2022-10-02T06:12:01.754Z,96
2022-10-02T06:22:02.068Z,96
2022-10-02T06:32:02.576Z,96
2022-10-02T06:42:02.872Z,97
2022-10-02T06:52:03.013Z,96
2022-10-02T07:12:04.156Z,96
2022-10-02T07:22:15.275Z,97
2022-10-02T07:32:05.207Z,97
2022-10-02T07:42:05.422Z,97
2022-10-02T07:52:05.973Z,97
2022-10-02T08:02:07.115Z,96
2022-10-02T08:12:07.177Z,96
2022-10-02T08:32:09.021Z,94
2022-10-02T08:52:10.394Z,92
2022-10-02T09:02:10.697Z,90
2022-10-02T09:42:13.214Z,90
2022-10-02T09:52:13.288Z,89
2022-10-02T10:22:14.746Z,86
2022-10-02T10:42:16.368Z,82
2022-10-02T10:52:16.545Z,83
2022-10-02T11:02:16.988Z,81
2022-10-02T11:12:17.332Z,76
2022-10-02T11:22:17.725Z,76
2022-10-02T11:32:18.318Z,76
2022-10-02T11:42:19.386Z,74
2022-10-02T11:52:19.755Z,74
2022-10-02T12:02:20.473Z,73
2022-10-02T12:12:24.546Z,72
2022-10-02T12:22:22.277Z,72
2022-10-02T12:32:23.070Z,71
2022-10-02T12:42:23.432Z,71
2022-10-02T12:52:24.323Z,71
2022-10-02T13:02:37.439Z,70
2022-10-02T13:12:25.429Z,70
2022-10-02T13:22:26.452Z,70
2022-10-02T13:32:27.169Z,69
2022-10-02T13:42:27.909Z,69
2022-10-02T14:02:29.096Z,67
2022-10-02T14:12:29.876Z,68
2022-10-02T14:22:30.711Z,70
2022-10-02T14:32:31.715Z,79
2022-10-02T14:35:12.099Z,79
2022-10-02T14:42:40.434Z,79
2022-10-02T14:52:41.312Z,78
2022-10-02T15:02:42.062Z,78
2022-10-02T15:12:42.687Z,78
2022-10-02T15:22:43.174Z,77
2022-10-02T15:32:43.902Z,73
2022-10-02T15:42:46.994Z,72
2022-10-02T15:52:44.609Z,72
2022-10-02T16:02:45.102Z,72
2022-10-02T16:12:46.015Z,71
2022-10-02T16:22:46.612Z,72
2022-10-02T16:32:47.388Z,73
2022-10-02T16:42:48.360Z,71
2022-10-02T16:52:49.137Z,71
2022-10-02T17:02:50.006Z,72
2022-10-02T17:12:50.980Z,73
2022-10-02T17:22:51.320Z,74
2022-10-02T17:32:51.730Z,78
2022-10-02T18:02:54.055Z,88
2022-10-02T18:12:54.543Z,90
2022-10-02T18:22:55.122Z,91
2022-10-02T18:32:55.895Z,92
2022-10-02T18:42:56.125Z,93
2022-10-02T18:52:56.649Z,94
2022-10-02T19:02:57.318Z,94
2022-10-02T19:12:58.268Z,95
2022-10-02T19:22:58.732Z,95
2022-10-02T19:32:58.923Z,96
2022-10-02T19:42:59.637Z,96
2022-10-02T19:52:59.718Z,96
2022-10-02T20:03:00.128Z,97
2022-10-02T20:23:01.448Z,97
2022-10-02T20:33:02.301Z,97
2022-10-02T20:53:03.401Z,98
2022-10-02T21:03:03.610Z,98
2022-10-02T21:13:03.870Z,98
2022-10-02T21:23:04.561Z,98
2022-10-02T21:33:05.647Z,98
2022-10-02T21:43:06.050Z,98
2022-10-02T21:53:06.513Z,98
2022-10-02T22:03:07.382Z,98
2022-10-02T22:13:07.985Z,99
2022-10-02T22:23:08.864Z,99
2022-10-02T22:33:09.476Z,99
2022-10-02T22:43:09.918Z,99
2022-10-02T22:53:10.578Z,99
2022-10-02T23:03:11.490Z,99
2022-10-02T23:13:11.810Z,99
2022-10-02T23:23:12.404Z,99
2022-10-02T23:33:13.391Z,99
2022-10-02T23:43:13.523Z,99
2022-10-02T23:53:13.880Z,99
